createdAt,value
2023-01-03T00:00:38.507Z,7.74
2023-01-03T00:03:06.072Z,7.73
2023-01-03T00:05:35.421Z,7.73
2023-01-03T00:08:03.421Z,7.73
2023-01-03T00:10:33.007Z,7.72
2023-01-03T00:13:00.684Z,7.73
2023-01-03T00:15:28.347Z,7.70
2023-01-03T00:17:56.515Z,7.72
2023-01-03T00:20:24.038Z,7.72
2023-01-03T00:22:51.564Z,7.72
2023-01-03T00:25:19.207Z,7.72
2023-01-03T00:27:50.347Z,7.72
2023-01-03T00:30:19.960Z,7.72
2023-01-03T00:32:47.488Z,7.70
2023-01-03T00:35:15.057Z,7.71
2023-01-03T00:37:45.260Z,7.70
2023-01-03T00:40:13.156Z,7.69
2023-01-03T00:42:54.753Z,7.68
2023-01-03T00:45:25.689Z,7.69
2023-01-03T00:47:53.679Z,7.68
2023-01-03T00:50:21.205Z,7.65
2023-01-03T00:52:48.723Z,7.62
2023-01-03T00:55:16.486Z,7.60
2023-01-03T00:57:43.989Z,7.58
2023-01-03T01:00:12.317Z,7.57
2023-01-03T01:02:41.377Z,7.56
2023-01-03T01:05:09.671Z,7.53
2023-01-03T01:07:39.088Z,7.52
2023-01-03T01:10:07.443Z,7.50
2023-01-03T01:12:35.003Z,7.47
2023-01-03T01:15:03.357Z,7.47
2023-01-03T01:17:31.102Z,7.44
2023-01-03T01:19:59.953Z,7.44
2023-01-03T01:22:27.481Z,7.44
2023-01-03T01:24:55.051Z,7.43
2023-01-03T01:27:23.710Z,7.42
2023-01-03T01:29:51.305Z,7.40
2023-01-03T01:32:18.913Z,7.39
2023-01-03T01:34:46.520Z,7.39
2023-01-03T01:37:15.427Z,7.37
2023-01-03T01:39:43.149Z,7.36
2023-01-03T01:42:31.868Z,7.35
2023-01-03T01:45:01.003Z,7.33
2023-01-03T01:47:41.025Z,7.34
2023-01-03T01:50:17.319Z,7.34
2023-01-03T01:52:49.583Z,7.32
2023-01-03T01:55:22.191Z,7.32
2023-01-03T01:57:50.941Z,7.31
2023-01-03T02:00:18.855Z,7.30
2023-01-03T02:02:50.507Z,7.30
2023-01-03T02:05:21.886Z,7.28
2023-01-03T02:07:52.672Z,7.28
2023-01-03T02:10:24.336Z,7.27
2023-01-03T02:13:08.693Z,7.25
2023-01-03T02:15:47.802Z,7.25
2023-01-03T02:18:30.017Z,7.22
2023-01-03T02:21:24.059Z,7.20
2023-01-03T02:24:22.274Z,7.15
2023-01-03T02:26:59.236Z,7.10
2023-01-03T02:29:55.456Z,7.05
2023-01-03T02:32:33.644Z,7.02
2023-01-03T02:35:07.657Z,6.98
2023-01-03T02:37:42.127Z,6.97
2023-01-03T02:40:18.788Z,6.93
2023-01-03T02:43:02.125Z,6.90
2023-01-03T02:45:44.244Z,6.86
2023-01-03T02:48:16.679Z,6.84
2023-01-03T02:50:52.834Z,6.83
2023-01-03T02:53:29.129Z,6.80
2023-01-03T02:56:02.386Z,6.79
2023-01-03T02:58:32.539Z,6.78
2023-01-03T03:01:02.606Z,6.78
2023-01-03T03:03:36.893Z,6.76
2023-01-03T03:06:12.366Z,6.75
2023-01-03T03:08:40.018Z,6.73
2023-01-03T03:11:28.651Z,6.71
2023-01-03T03:14:01.222Z,6.69
2023-01-03T03:16:50.989Z,6.67
2023-01-03T03:19:43.160Z,6.66
2023-01-03T03:22:34.793Z,6.64
2023-01-03T03:25:07.591Z,6.65
2023-01-03T03:27:56.733Z,6.63
2023-01-03T03:30:26.659Z,6.61
2023-01-03T03:32:59.410Z,6.60
2023-01-03T03:35:32.052Z,6.55
2023-01-03T03:38:01.726Z,6.53
2023-01-03T03:40:51.470Z,6.51
2023-01-03T03:43:46.592Z,6.50
2023-01-03T03:46:18.217Z,6.50
2023-01-03T03:49:08.752Z,6.48
2023-01-03T03:51:40.548Z,6.47
2023-01-03T03:54:14.886Z,6.45
2023-01-03T03:56:46.136Z,6.44
2023-01-03T03:59:16.252Z,6.43
2023-01-03T04:01:45.991Z,6.39
2023-01-03T04:04:19.872Z,6.38
2023-01-03T04:06:51.893Z,6.36
2023-01-03T04:09:20.318Z,6.33
2023-01-03T04:11:47.855Z,6.29
2023-01-03T04:14:15.406Z,6.25
2023-01-03T04:16:43.007Z,6.21
2023-01-03T04:19:10.601Z,6.16
2023-01-03T04:21:38.323Z,6.09
2023-01-03T04:24:08.444Z,6.04
2023-01-03T04:26:36.276Z,5.99
2023-01-03T04:29:04.096Z,5.95
2023-01-03T04:31:31.934Z,5.93
2023-01-03T04:33:59.524Z,5.89
2023-01-03T04:36:27.311Z,5.87
2023-01-03T04:38:54.839Z,5.85
2023-01-03T04:41:23.809Z,5.85
2023-01-03T04:44:02.599Z,5.84
2023-01-03T04:46:31.075Z,5.81
2023-01-03T04:48:58.882Z,5.81
2023-01-03T04:51:26.641Z,5.81
2023-01-03T04:53:54.284Z,5.81
2023-01-03T04:56:27.869Z,5.81
2023-01-03T04:58:55.463Z,5.80
2023-01-03T05:01:23.760Z,5.79
2023-01-03T05:03:51.700Z,5.78
2023-01-03T05:06:19.715Z,5.77
2023-01-03T05:08:48.141Z,5.76
2023-01-03T05:11:15.677Z,5.75
2023-01-03T05:13:44.926Z,5.74
2023-01-03T05:16:14.310Z,5.75
2023-01-03T05:18:42.293Z,5.74
2023-01-03T05:21:31.759Z,5.72
2023-01-03T05:24:17.065Z,5.70
2023-01-03T05:26:45.436Z,5.68
2023-01-03T05:29:18.419Z,5.66
2023-01-03T05:31:47.562Z,5.63
2023-01-03T05:34:15.457Z,5.63
2023-01-03T05:36:43.025Z,5.61
2023-01-03T05:39:10.565Z,5.59
2023-01-03T05:41:54.988Z,5.60
2023-01-03T05:44:24.141Z,5.57
2023-01-03T05:46:51.824Z,5.56
2023-01-03T05:49:19.374Z,5.55
2023-01-03T05:51:46.896Z,5.56
2023-01-03T05:54:16.026Z,5.56
2023-01-03T05:56:43.842Z,5.56
2023-01-03T05:59:11.738Z,5.58
2023-01-03T06:01:40.719Z,5.59
2023-01-03T06:04:08.458Z,5.60
2023-01-03T06:06:36.005Z,5.61
2023-01-03T06:09:03.631Z,5.61
2023-01-03T06:11:31.201Z,5.62
2023-01-03T06:13:58.800Z,5.61
2023-01-03T06:16:44.083Z,5.62
2023-01-03T06:19:13.213Z,5.62
2023-01-03T06:21:41.968Z,5.61
2023-01-03T06:24:10.438Z,5.58
2023-01-03T06:26:37.984Z,5.55
2023-01-03T06:29:06.758Z,5.50
2023-01-03T06:31:34.379Z,5.46
2023-01-03T06:34:02.081Z,5.43
2023-01-03T06:36:34.226Z,5.38
2023-01-03T06:39:02.017Z,5.34
2023-01-03T06:41:29.708Z,5.32
2023-01-03T06:43:57.812Z,5.28
2023-01-03T06:46:45.078Z,5.25
2023-01-03T06:49:34.610Z,5.20
2023-01-03T06:52:22.750Z,5.16
2023-01-03T06:54:50.360Z,5.11
2023-01-03T06:57:26.830Z,5.07
2023-01-03T06:59:54.987Z,5.01
2023-01-03T07:02:22.751Z,4.96
2023-01-03T07:04:50.504Z,4.90
2023-01-03T07:07:19.445Z,4.84
2023-01-03T07:09:46.939Z,4.81
2023-01-03T07:12:31.963Z,4.77
2023-01-03T07:14:59.501Z,4.72
2023-01-03T07:17:27.032Z,4.69
2023-01-03T07:19:54.681Z,4.66
2023-01-03T07:22:23.579Z,4.63
2023-01-03T07:24:51.088Z,4.62
2023-01-03T07:27:18.836Z,4.61
2023-01-03T07:29:46.449Z,4.61
2023-01-03T07:32:13.946Z,4.57
2023-01-03T07:34:41.484Z,4.57
2023-01-03T07:37:09.082Z,4.57
2023-01-03T07:39:37.911Z,4.56
2023-01-03T07:42:22.439Z,4.55
2023-01-03T07:44:49.983Z,4.57
2023-01-03T07:47:17.485Z,4.58
2023-01-03T07:49:44.979Z,4.58
2023-01-03T07:52:12.491Z,4.57
2023-01-03T07:54:41.345Z,4.58
2023-01-03T07:57:08.921Z,4.59
2023-01-03T07:59:36.482Z,4.57
2023-01-03T08:02:04.114Z,4.59
2023-01-03T08:04:31.796Z,4.60
2023-01-03T08:06:59.309Z,4.60
2023-01-03T08:09:44.412Z,4.62
2023-01-03T08:12:31.163Z,4.66
2023-01-03T08:14:58.731Z,4.68
2023-01-03T08:17:26.234Z,4.70
2023-01-03T08:19:53.766Z,4.71
2023-01-03T08:22:21.251Z,4.74
2023-01-03T08:24:48.863Z,4.74
2023-01-03T08:27:17.733Z,4.77
2023-01-03T08:29:47.018Z,4.79
2023-01-03T08:32:14.881Z,4.82
2023-01-03T08:34:44.395Z,4.84
2023-01-03T08:37:14.770Z,4.85
2023-01-03T08:39:45.845Z,4.89
2023-01-03T08:42:16.475Z,4.91
2023-01-03T08:44:45.779Z,4.95
2023-01-03T08:47:15.279Z,4.97
2023-01-03T08:49:43.376Z,5.00
2023-01-03T08:52:10.835Z,5.02
2023-01-03T08:54:39.180Z,5.06
2023-01-03T08:57:06.910Z,5.07
2023-01-03T08:59:34.520Z,5.11
2023-01-03T09:02:03.796Z,5.13
2023-01-03T09:04:31.458Z,5.18
2023-01-03T09:06:59.021Z,5.20
2023-01-03T09:09:26.597Z,5.22
2023-01-03T09:11:54.147Z,5.23
2023-01-03T09:14:21.783Z,5.28
2023-01-03T09:16:49.809Z,5.31
2023-01-03T09:19:18.745Z,5.36
2023-01-03T09:21:46.296Z,5.40
2023-01-03T09:24:13.885Z,5.43
2023-01-03T09:26:41.670Z,5.46
2023-01-03T09:29:09.183Z,5.49
2023-01-03T09:31:39.999Z,5.53
2023-01-03T09:34:07.841Z,5.56
2023-01-03T09:36:38.534Z,5.60
2023-01-03T09:39:06.213Z,5.61
2023-01-03T09:41:34.345Z,5.66
2023-01-03T09:44:05.778Z,5.68
2023-01-03T09:46:35.261Z,5.71
2023-01-03T09:49:04.005Z,5.74
2023-01-03T09:51:51.109Z,5.79
2023-01-03T09:54:44.586Z,5.83
2023-01-03T09:57:34.968Z,5.98
2023-01-03T10:00:20.737Z,6.15
2023-01-03T10:03:31.827Z,6.39
2023-01-03T10:06:13.045Z,6.66
2023-01-03T10:08:50.450Z,6.86
2023-01-03T10:11:24.752Z,7.03
2023-01-03T10:14:10.607Z,7.24
2023-01-03T10:16:48.778Z,7.40
2023-01-03T10:19:34.755Z,7.57
2023-01-03T10:22:10.739Z,7.71
2023-01-03T10:24:45.093Z,7.82
2023-01-03T10:27:18.197Z,7.90
2023-01-03T10:29:47.269Z,7.95
2023-01-03T10:32:40.952Z,7.99
2023-01-03T10:35:21.441Z,8.11
2023-01-03T10:37:51.837Z,8.18
2023-01-03T10:40:19.790Z,8.23
2023-01-03T10:42:50.205Z,8.33
2023-01-03T10:45:20.106Z,8.40
2023-01-03T10:47:58.976Z,8.44
2023-01-03T10:50:27.520Z,8.41
2023-01-03T10:52:59.726Z,8.45
2023-01-03T10:55:28.128Z,8.53
2023-01-03T10:58:02.693Z,8.62
2023-01-03T11:00:33.717Z,8.73
2023-01-03T11:03:13.584Z,8.82
2023-01-03T11:05:42.941Z,8.89
2023-01-03T11:08:17.401Z,8.99
2023-01-03T11:10:59.156Z,9.01
2023-01-03T11:13:33.919Z,9.01
2023-01-03T11:16:03.307Z,9.09
2023-01-03T11:18:32.966Z,9.12
2023-01-03T11:21:09.662Z,9.20
2023-01-03T11:23:56.573Z,9.27
2023-01-03T11:26:45.817Z,9.34
2023-01-03T11:29:46.203Z,9.46
2023-01-03T11:32:25.289Z,9.53
2023-01-03T11:35:46.846Z,9.63
2023-01-03T11:38:29.805Z,9.57
2023-01-03T11:41:08.256Z,9.59
2023-01-03T11:43:47.457Z,9.49
2023-01-03T11:46:27.609Z,9.44
2023-01-03T11:49:16.480Z,9.46
2023-01-03T11:51:56.911Z,9.48
2023-01-03T11:54:53.564Z,9.52
2023-01-03T11:57:33.802Z,9.52
2023-01-03T12:00:12.772Z,9.57
2023-01-03T12:03:07.975Z,9.59
2023-01-03T12:05:43.859Z,9.56
2023-01-03T12:08:42.172Z,9.59
2023-01-03T12:11:22.640Z,9.63
2023-01-03T12:13:58.716Z,9.57
2023-01-03T12:16:32.746Z,9.65
2023-01-03T12:19:12.293Z,9.69
2023-01-03T12:21:44.025Z,9.70
2023-01-03T12:24:17.827Z,9.74
2023-01-03T12:26:52.381Z,9.83
2023-01-03T12:29:25.678Z,9.99
2023-01-03T12:32:01.112Z,10.01
2023-01-03T12:34:36.083Z,9.88
2023-01-03T12:37:12.402Z,9.90
2023-01-03T12:39:48.573Z,9.98
2023-01-03T12:42:25.683Z,10.02
2023-01-03T12:45:00.758Z,10.13
2023-01-03T12:47:33.293Z,10.24
2023-01-03T12:50:11.650Z,10.36
2023-01-03T12:52:42.249Z,10.41
2023-01-03T12:55:21.447Z,10.46
2023-01-03T12:58:07.088Z,10.54
2023-01-03T13:00:48.402Z,10.57
2023-01-03T13:03:21.106Z,10.60
2023-01-03T13:05:54.399Z,10.62
2023-01-03T13:08:32.036Z,10.68
2023-01-03T13:11:03.272Z,10.80
2023-01-03T13:13:31.103Z,10.81
2023-01-03T13:15:58.810Z,10.84
2023-01-03T13:18:36.488Z,10.96
2023-01-03T13:21:46.009Z,10.95
2023-01-03T13:24:42.750Z,10.96
2023-01-03T13:27:37.308Z,10.99
2023-01-03T13:30:20.716Z,11.02
2023-01-03T13:32:52.068Z,11.09
2023-01-03T13:35:30.547Z,11.19
2023-01-03T13:38:12.293Z,11.22
2023-01-03T13:41:16.450Z,11.23
2023-01-03T13:43:39.962Z,11.21
2023-01-03T13:46:21.458Z,11.18
2023-01-03T13:48:56.188Z,11.25
2023-01-03T13:51:36.211Z,11.29
2023-01-03T13:54:24.632Z,11.28
2023-01-03T13:57:28.681Z,11.17
2023-01-03T13:59:59.625Z,11.10
2023-01-03T14:02:57.300Z,10.87
2023-01-03T14:05:58.130Z,10.77
2023-01-03T14:08:41.707Z,10.53
2023-01-03T14:11:31.038Z,10.33
2023-01-03T14:14:05.593Z,10.14
2023-01-03T14:16:46.420Z,9.93
2023-01-03T14:19:21.515Z,9.79
2023-01-03T14:21:54.306Z,9.62
2023-01-03T14:24:27.501Z,9.44
2023-01-03T14:26:55.857Z,9.28
2023-01-03T14:29:27.235Z,9.18
2023-01-03T14:31:56.691Z,9.11
2023-01-03T14:34:33.813Z,9.03
2023-01-03T14:37:04.035Z,8.93
2023-01-03T14:42:00.963Z,8.80
2023-01-03T14:44:30.967Z,8.72
2023-01-03T14:47:00.813Z,8.64
2023-01-03T14:49:38.179Z,8.57
2023-01-03T14:52:09.953Z,8.51
2023-01-03T14:54:38.859Z,8.45
2023-01-03T14:57:11.508Z,8.37
2023-01-03T14:59:40.439Z,8.30
2023-01-03T15:02:12.209Z,8.23
2023-01-03T15:04:43.809Z,8.15
2023-01-03T15:07:28.137Z,8.04
2023-01-03T15:10:07.838Z,7.93
2023-01-03T15:12:39.636Z,7.84
2023-01-03T15:15:17.318Z,7.74
2023-01-03T15:17:45.293Z,7.63
2023-01-03T15:20:19.024Z,7.54
2023-01-03T15:22:47.024Z,7.42
2023-01-03T15:25:20.919Z,7.34
2023-01-03T15:27:50.828Z,7.25
2023-01-03T15:30:29.456Z,7.17
2023-01-03T15:32:59.965Z,7.08
2023-01-03T15:35:34.217Z,7.02
2023-01-03T15:38:04.034Z,6.95
2023-01-03T15:40:32.576Z,6.90
2023-01-03T15:43:23.550Z,6.86
2023-01-03T15:46:01.273Z,6.79
2023-01-03T15:48:29.279Z,6.73
2023-01-03T15:50:57.022Z,6.68
2023-01-03T15:53:28.889Z,6.64
2023-01-03T15:56:00.383Z,6.60
2023-01-03T15:58:29.240Z,6.59
2023-01-03T16:00:59.490Z,6.57
2023-01-03T16:03:32.941Z,6.56
2023-01-03T16:06:00.844Z,6.54
2023-01-03T16:08:32.156Z,6.55
2023-01-03T16:11:01.810Z,6.53
2023-01-03T16:13:31.173Z,6.52
2023-01-03T16:16:00.635Z,6.52
2023-01-03T16:18:35.816Z,6.50
2023-01-03T16:21:04.492Z,6.48
2023-01-03T16:23:33.851Z,6.48
2023-01-03T16:26:01.741Z,6.48
2023-01-03T16:28:29.628Z,6.47
2023-01-03T16:31:14.106Z,6.47
2023-01-03T16:33:43.360Z,6.44
2023-01-03T16:36:25.635Z,6.42
2023-01-03T16:38:53.169Z,6.40
2023-01-03T16:41:20.662Z,6.36
2023-01-03T16:43:48.349Z,6.35
2023-01-03T16:46:19.952Z,6.32
2023-01-03T16:48:52.389Z,6.28
2023-01-03T16:51:24.303Z,6.27
2023-01-03T16:53:52.858Z,6.26
2023-01-03T16:56:20.403Z,6.27
2023-01-03T16:58:47.943Z,6.25
2023-01-03T17:01:17.027Z,6.23
2023-01-03T17:03:44.700Z,6.18
2023-01-03T17:06:23.118Z,6.14
2023-01-03T17:08:50.794Z,6.11
2023-01-03T17:11:18.874Z,6.11
2023-01-03T17:13:48.813Z,6.11
2023-01-03T17:16:19.707Z,6.10
2023-01-03T17:18:47.741Z,6.08
2023-01-03T17:21:23.494Z,6.06
2023-01-03T17:23:52.402Z,6.04
2023-01-03T17:26:22.537Z,6.00
2023-01-03T17:28:51.502Z,5.97
2023-01-03T17:31:25.147Z,5.94
2023-01-03T17:33:53.607Z,5.92
2023-01-03T17:36:25.292Z,5.89
2023-01-03T17:38:53.412Z,5.90
2023-01-03T17:41:25.085Z,5.89
2023-01-03T17:43:52.924Z,5.89
2023-01-03T17:46:40.737Z,5.88
2023-01-03T17:49:27.798Z,5.85
2023-01-03T17:51:58.433Z,5.83
2023-01-03T17:54:28.467Z,5.80
2023-01-03T17:56:57.927Z,5.80
2023-01-03T17:59:25.794Z,5.76
2023-01-03T18:01:55.204Z,5.74
2023-01-03T18:04:23.070Z,5.73
2023-01-03T18:06:55.490Z,5.67
2023-01-03T18:09:24.932Z,5.64
2023-01-03T18:11:53.422Z,5.60
2023-01-03T18:14:21.845Z,5.55
2023-01-03T18:16:54.887Z,5.52
2023-01-03T18:19:24.146Z,5.47
2023-01-03T18:21:52.191Z,5.43
2023-01-03T18:24:22.299Z,5.43
2023-01-03T18:26:53.156Z,5.41
2023-01-03T18:29:20.770Z,5.37
2023-01-03T18:31:49.016Z,5.33
2023-01-03T18:34:16.626Z,5.32
2023-01-03T18:36:48.396Z,5.28
2023-01-03T18:39:19.977Z,5.23
2023-01-03T18:41:47.522Z,5.20
2023-01-03T18:44:20.238Z,5.16
2023-01-03T18:46:48.489Z,5.12
2023-01-03T18:49:16.228Z,5.10
2023-01-03T18:51:46.136Z,5.09
2023-01-03T18:54:19.109Z,5.08
2023-01-03T18:57:07.696Z,5.07
2023-01-03T18:59:35.290Z,5.05
2023-01-03T19:02:02.955Z,5.05
2023-01-03T19:04:30.528Z,5.06
2023-01-03T19:06:59.417Z,5.06
2023-01-03T19:09:29.143Z,5.07
2023-01-03T19:11:57.529Z,5.08
2023-01-03T19:14:25.074Z,5.10
2023-01-03T19:16:52.600Z,5.09
2023-01-03T19:19:20.101Z,5.08
2023-01-03T19:21:48.691Z,5.07
2023-01-03T19:24:23.717Z,5.07
2023-01-03T19:26:55.518Z,5.05
2023-01-03T19:29:25.171Z,5.05
2023-01-03T19:31:56.239Z,5.04
2023-01-03T19:34:25.139Z,5.03
2023-01-03T19:36:53.010Z,4.99
2023-01-03T19:39:25.907Z,4.99
2023-01-03T19:42:15.623Z,4.95
2023-01-03T19:44:43.611Z,4.94
2023-01-03T19:47:14.533Z,4.92
2023-01-03T19:49:42.164Z,4.89
2023-01-03T19:52:09.794Z,4.86
2023-01-03T19:54:38.750Z,4.83
2023-01-03T19:57:06.751Z,4.81
2023-01-03T19:59:37.257Z,4.77
2023-01-03T20:02:25.397Z,4.74
2023-01-03T20:04:53.758Z,4.69
2023-01-03T20:07:21.377Z,4.65
2023-01-03T20:09:50.278Z,4.62
2023-01-03T20:12:23.834Z,4.59
2023-01-03T20:14:53.461Z,4.57
2023-01-03T20:17:22.554Z,4.54
2023-01-03T20:19:50.598Z,4.53
2023-01-03T20:22:37.757Z,4.52
2023-01-03T20:25:21.355Z,4.52
2023-01-03T20:27:48.864Z,4.52
2023-01-03T20:30:17.879Z,4.52
2023-01-03T20:32:45.503Z,4.55
2023-01-03T20:35:56.197Z,4.57
2023-01-03T20:38:03.613Z,4.61
2023-01-03T20:40:32.442Z,4.65
2023-01-03T20:43:02.088Z,4.68
2023-01-03T20:45:30.590Z,4.71
2023-01-03T20:47:58.357Z,4.74
2023-01-03T20:50:27.605Z,4.77
2023-01-03T20:52:55.947Z,4.78
2023-01-03T20:55:26.834Z,4.82
2023-01-03T20:57:55.635Z,4.83
2023-01-03T21:00:26.530Z,4.85
2023-01-03T21:02:54.592Z,4.86
2023-01-03T21:05:23.064Z,4.87
2023-01-03T21:08:08.682Z,4.86
2023-01-03T21:10:39.417Z,4.83
2023-01-03T21:13:08.884Z,4.82
2023-01-03T21:15:37.402Z,4.82
2023-01-03T21:18:06.059Z,4.78
2023-01-03T21:20:34.208Z,4.76
2023-01-03T21:23:01.951Z,4.73
2023-01-03T21:25:32.259Z,4.72
2023-01-03T21:28:04.011Z,4.69
2023-01-03T21:30:33.635Z,4.66
2023-01-03T21:33:01.428Z,4.65
2023-01-03T21:35:29.187Z,4.61
2023-01-03T21:37:56.915Z,4.58
2023-01-03T21:40:26.153Z,4.56
2023-01-03T21:43:04.868Z,4.55
2023-01-03T21:45:36.809Z,4.52
2023-01-03T21:48:06.521Z,4.50
2023-01-03T21:50:36.261Z,4.48
2023-01-03T21:53:04.058Z,4.44
2023-01-03T21:55:31.999Z,4.42
2023-01-03T21:58:00.237Z,4.40
2023-01-03T22:00:27.788Z,4.37
2023-01-03T22:03:14.287Z,4.34
2023-01-03T22:05:41.833Z,4.32
2023-01-03T22:08:10.137Z,4.31
2023-01-03T22:10:37.861Z,4.28
2023-01-03T22:13:08.084Z,4.26
2023-01-03T22:15:37.351Z,4.23
2023-01-03T22:18:08.910Z,4.21
2023-01-03T22:20:38.731Z,4.17
2023-01-03T22:23:08.386Z,4.16
2023-01-03T22:25:35.908Z,4.13
2023-01-03T22:28:03.510Z,4.11
2023-01-03T22:30:31.363Z,4.08
2023-01-03T22:32:59.371Z,4.05
2023-01-03T22:35:28.196Z,4.03
2023-01-03T22:37:56.521Z,4.00
2023-01-03T22:40:24.249Z,4.00
2023-01-03T22:42:51.718Z,4.00
2023-01-03T22:45:19.464Z,4.00
2023-01-03T22:47:47.025Z,3.99
2023-01-03T22:50:14.520Z,3.98
2023-01-03T22:52:43.342Z,3.99
2023-01-03T22:55:11.631Z,4.00
2023-01-03T22:57:39.365Z,4.01
2023-01-03T23:00:10.425Z,4.03
2023-01-03T23:02:41.898Z,4.03
2023-01-03T23:05:10.219Z,4.02
2023-01-03T23:07:39.324Z,4.00
2023-01-03T23:10:10.256Z,3.98
2023-01-03T23:12:55.977Z,3.95
2023-01-03T23:15:23.797Z,3.89
2023-01-03T23:17:57.151Z,3.82
2023-01-03T23:20:26.489Z,3.77
2023-01-03T23:22:59.423Z,3.72
2023-01-03T23:25:29.125Z,3.70
2023-01-03T23:27:56.781Z,3.65
2023-01-03T23:30:24.384Z,3.62
2023-01-03T23:32:51.945Z,3.59
2023-01-03T23:35:19.680Z,3.55
2023-01-03T23:37:48.183Z,3.50
2023-01-03T23:40:16.450Z,3.47
2023-01-03T23:42:45.368Z,3.45
2023-01-03T23:45:13.354Z,3.45
2023-01-03T23:47:40.898Z,3.46
2023-01-03T23:50:08.968Z,3.48
2023-01-03T23:52:36.446Z,3.48
2023-01-03T23:55:10.431Z,3.46
2023-01-03T23:57:39.917Z,3.45
